Time;durP1;ratioP1;P1;durP2;ratioP2;P2;SDS_P1;SDS_P2;PMS_P1;PMS_P2;Temp;Humidity;BMP_temperature;BMP_pressure;BME280_temperature;BME280_humidity;BME280_pressure;Samples;Min_cycle;Max_cycle;Signal;HPM_P1;HPM_P2
2022/11/27 00:01:35;;;;;;;;;;;17.20;92.80;;;;;;5096106;28;19915;-40
2022/11/27 00:04:01;;;;;;;;;;;17.10;92.80;;;;;;5096782;28;19951;-40
2022/11/27 00:06:27;;;;;;;;;;;17.20;92.80;;;;;;5096462;28;19915;-41
2022/11/27 00:08:55;;;;;;;;;;;17.10;92.80;;;;;;5095766;28;19952;-40
2022/11/27 00:11:21;;;;;;;;;;;17.10;92.80;;;;;;5096187;28;19927;-40
2022/11/27 00:13:47;;;;;;;;;;;17.20;92.80;;;;;;5096178;28;19908;-40
2022/11/27 00:16:13;;;;;;;;;;;17.10;92.90;;;;;;5096025;28;20275;-41
2022/11/27 00:18:39;;;;;;;;;;;17.20;92.90;;;;;;5096276;28;20339;-41
2022/11/27 00:21:06;;;;;;;;;;;17.10;92.80;;;;;;5096261;28;19915;-40
2022/11/27 00:23:32;;;;;;;;;;;17.10;92.90;;;;;;5095844;28;20355;-40
2022/11/27 00:25:58;;;;;;;;;;;17.10;92.90;;;;;;5096138;28;19908;-41
2022/11/27 00:28:23;;;;;;;;;;;17.10;92.90;;;;;;5095700;28;19969;-41
2022/11/27 00:30:49;;;;;;;;;;;17.10;92.90;;;;;;5096012;28;19916;-40
2022/11/27 00:33:14;;;;;;;;;;;17.00;92.80;;;;;;5096268;28;19909;-40
2022/11/27 00:35:39;;;;;;;;;;;17.10;92.90;;;;;;5095715;28;20001;-40
2022/11/27 00:38:05;;;;;;;;;;;17.00;92.90;;;;;;5095421;28;20366;-40
2022/11/27 00:40:31;;;;;;;;;;;17.10;93.00;;;;;;5095448;28;20006;-40
2022/11/27 00:42:56;;;;;;;;;;;17.10;93.00;;;;;;5095675;28;19908;-40
2022/11/27 00:45:21;;;;;;;;;;;17.00;93.00;;;;;;5095738;28;19923;-40
2022/11/27 00:47:47;;;;;;;;;;;17.00;92.90;;;;;;5095991;28;20255;-40
2022/11/27 00:50:12;;;;;;;;;;;17.00;93.00;;;;;;5095176;28;19927;-40
2022/11/27 00:52:38;;;;;;;;;;;17.00;93.00;;;;;;5095351;28;19915;-40
2022/11/27 00:55:04;;;;;;;;;;;17.00;93.00;;;;;;5095266;28;19912;-40
2022/11/27 00:57:29;;;;;;;;;;;17.00;93.00;;;;;;5095233;28;20385;-40
2022/11/27 00:59:55;;;;;;;;;;;17.00;93.00;;;;;;5095432;28;19998;-40
2022/11/27 01:02:20;;;;;;;;;;;17.00;93.10;;;;;;5095007;28;19931;-40
2022/11/27 01:04:46;;;;;;;;;;;17.00;93.10;;;;;;5094928;28;19908;-40
2022/11/27 01:07:12;;;;;;;;;;;17.00;93.10;;;;;;5095203;28;20262;-41
2022/11/27 01:09:37;;;;;;;;;;;17.00;93.10;;;;;;5095095;28;20010;-40
2022/11/27 01:12:03;;;;;;;;;;;17.00;93.20;;;;;;5093357;28;20019;-40
2022/11/27 01:14:28;;;;;;;;;;;17.00;93.10;;;;;;5094799;28;19915;-40
2022/11/27 01:16:54;;;;;;;;;;;17.00;93.10;;;;;;5094860;28;20000;-42
2022/11/27 01:19:19;;;;;;;;;;;17.00;93.10;;;;;;5094691;28;20306;-40
2022/11/27 01:21:45;;;;;;;;;;;17.00;93.20;;;;;;5076752;28;19912;-40
2022/11/27 01:24:11;;;;;;;;;;;17.00;93.20;;;;;;5093326;28;19908;-39
2022/11/27 01:26:37;;;;;;;;;;;17.00;93.20;;;;;;5095052;28;19930;-39
2022/11/27 01:29:02;;;;;;;;;;;17.00;93.30;;;;;;5092880;28;20062;-40
2022/11/27 01:31:29;;;;;;;;;;;17.00;93.20;;;;;;5095121;28;20355;-40
2022/11/27 01:33:56;;;;;;;;;;;17.10;93.60;;;;;;5094560;28;19943;-41
2022/11/27 01:36:22;;;;;;;;;;;17.00;93.20;;;;;;5108333;28;19990;-40
2022/11/27 01:38:47;;;;;;;;;;;17.00;93.30;;;;;;5114740;28;20394;-41
2022/11/27 01:41:15;;;;;;;;;;;17.00;93.30;;;;;;5101154;28;19912;-41
2022/11/27 01:43:50;;;;;;;;;;;17.00;93.30;;;;;;5094980;28;19966;-40
2022/11/27 01:46:28;;;;;;;;;;;17.00;93.30;;;;;;5093984;28;19908;-40
2022/11/27 01:48:56;;;;;;;;;;;17.00;93.40;;;;;;5074171;28;19920;-39
2022/11/27 01:51:22;;;;;;;;;;;17.00;93.30;;;;;;5074198;28;19977;-40
2022/11/27 01:53:47;;;;;;;;;;;17.00;93.30;;;;;;5074154;28;20011;-40
2022/11/27 01:56:13;;;;;;;;;;;17.00;93.40;;;;;;5075499;28;19912;-40
2022/11/27 01:58:39;;;;;;;;;;;17.00;93.40;;;;;;5090428;28;19927;-42
2022/11/27 02:01:04;;;;;;;;;;;17.00;93.30;;;;;;5063971;28;19953;-39
2022/11/27 02:03:30;;;;;;;;;;;17.00;93.40;;;;;;5094067;28;19915;-40
2022/11/27 02:05:56;;;;;;;;;;;17.00;93.30;;;;;;5076077;28;19912;-40
2022/11/27 02:08:21;;;;;;;;;;;17.00;93.40;;;;;;5093910;28;20347;-40
2022/11/27 02:10:50;;;;;;;;;;;17.00;93.40;;;;;;5093617;28;19948;-42
2022/11/27 02:13:19;;;;;;;;;;;17.00;93.40;;;;;;5071752;28;19995;-40
2022/11/27 02:16:00;;;;;;;;;;;17.10;93.50;;;;;;5095025;28;19908;-40
2022/11/27 02:18:44;;;;;;;;;;;17.10;93.40;;;;;;5092628;28;19912;-40
2022/11/27 02:21:17;;;;;;;;;;;17.00;93.40;;;;;;5090929;28;19908;-40
2022/11/27 02:24:03;;;;;;;;;;;17.10;93.40;;;;;;5092574;28;19923;-45
2022/11/27 02:27:03;;;;;;;;;;;17.00;93.40;;;;;;5055051;28;19919;-42
2022/11/27 02:29:31;;;;;;;;;;;17.10;93.50;;;;;;5029841;28;19960;-40
2022/11/27 02:32:00;;;;;;;;;;;17.00;93.50;;;;;;5078980;28;19908;-40
2022/11/27 02:34:25;;;;;;;;;;;17.00;93.40;;;;;;5091927;28;20369;-41
2022/11/27 02:37:02;;;;;;;;;;;17.00;93.40;;;;;;5092672;28;19908;-40
2022/11/27 02:39:50;;;;;;;;;;;17.10;93.40;;;;;;5092739;28;20285;-44
2022/11/27 02:42:18;;;;;;;;;;;17.00;93.40;;;;;;5083393;28;19908;-41
2022/11/27 02:44:46;;;;;;;;;;;17.00;93.40;;;;;;5091782;28;19912;-43
2022/11/27 02:47:13;;;;;;;;;;;17.10;93.40;;;;;;5092045;28;20279;-41
2022/11/27 02:49:39;;;;;;;;;;;17.00;93.40;;;;;;5092112;28;19916;-40
2022/11/27 02:52:05;;;;;;;;;;;17.00;93.50;;;;;;5092018;28;19951;-42
2022/11/27 02:54:31;;;;;;;;;;;17.00;93.40;;;;;;5093027;28;19962;-41
2022/11/27 02:56:59;;;;;;;;;;;17.00;93.50;;;;;;5075636;28;19915;-41
2022/11/27 02:59:27;;;;;;;;;;;17.00;93.50;;;;;;5093473;28;19908;-40
2022/11/27 03:01:58;;;;;;;;;;;17.10;93.30;;;;;;5093418;28;19916;-40
2022/11/27 03:04:33;;;;;;;;;;;17.10;93.20;;;;;;5075649;28;19912;-40
2022/11/27 03:07:00;;;;;;;;;;;17.00;93.20;;;;;;5093505;28;19912;-41
2022/11/27 03:09:29;;;;;;;;;;;17.00;93.30;;;;;;5075597;28;20006;-44
2022/11/27 03:11:54;;;;;;;;;;;17.10;93.30;;;;;;5094559;28;19956;-40
2022/11/27 03:14:23;;;;;;;;;;;17.00;93.40;;;;;;5097092;28;19954;-40
2022/11/27 03:17:01;;;;;;;;;;;17.00;93.30;;;;;;5097322;28;19952;-39
2022/11/27 03:19:30;;;;;;;;;;;17.00;93.40;;;;;;5079281;28;19908;-41
2022/11/27 03:21:57;;;;;;;;;;;17.10;93.40;;;;;;5097418;28;19909;-40
2022/11/27 03:24:23;;;;;;;;;;;17.00;93.40;;;;;;5079174;28;19912;-40
2022/11/27 03:26:48;;;;;;;;;;;17.00;93.40;;;;;;5097028;28;20014;-39
2022/11/27 03:29:16;;;;;;;;;;;17.00;93.40;;;;;;5096825;28;19981;-39
2022/11/27 03:31:42;;;;;;;;;;;17.10;93.30;;;;;;5097134;28;19944;-40
2022/11/27 03:34:08;;;;;;;;;;;17.10;93.40;;;;;;5078962;28;19908;-40
2022/11/27 03:36:33;;;;;;;;;;;17.10;93.30;;;;;;5097081;28;20277;-39
2022/11/27 03:38:59;;;;;;;;;;;17.10;93.30;;;;;;5097405;28;19951;-39
2022/11/27 03:41:43;;;;;;;;;;;17.10;93.20;;;;;;5078674;28;19908;-40
2022/11/27 03:44:21;;;;;;;;;;;17.00;93.30;;;;;;5096939;28;19923;-40
2022/11/27 03:47:05;;;;;;;;;;;17.00;93.30;;;;;;5096940;28;19908;-40
2022/11/27 03:49:47;;;;;;;;;;;17.10;93.40;;;;;;5096583;28;20018;-40
2022/11/27 03:52:48;;;;;;;;;;;17.10;93.40;;;;;;5096900;28;19912;-39
2022/11/27 03:55:21;;;;;;;;;;;17.10;93.20;;;;;;5034068;28;19913;-40
2022/11/27 03:57:52;;;;;;;;;;;17.10;93.20;;;;;;5086488;28;19958;-40
2022/11/27 04:00:18;;;;;;;;;;;17.20;93.30;;;;;;5096621;28;19916;-39
2022/11/27 04:02:46;;;;;;;;;;;17.20;93.30;;;;;;5096550;28;20373;-40
2022/11/27 04:05:12;;;;;;;;;;;17.20;93.20;;;;;;5096855;28;19912;-40
2022/11/27 04:07:38;;;;;;;;;;;17.20;93.20;;;;;;5096199;28;19969;-40
2022/11/27 04:10:04;;;;;;;;;;;17.10;93.20;;;;;;5095922;28;19920;-40
2022/11/27 04:12:29;;;;;;;;;;;17.10;93.20;;;;;;5096463;28;19908;-40
2022/11/27 04:14:55;;;;;;;;;;;17.20;93.30;;;;;;5096392;28;20385;-40
2022/11/27 04:17:20;;;;;;;;;;;17.20;93.20;;;;;;5096343;28;19908;-40
2022/11/27 04:19:46;;;;;;;;;;;17.20;93.20;;;;;;5096579;28;19908;-40
2022/11/27 04:22:11;;;;;;;;;;;17.10;93.30;;;;;;5078071;28;19908;-40
2022/11/27 04:24:37;;;;;;;;;;;17.10;93.30;;;;;;5095570;28;19954;-40
2022/11/27 04:27:02;;;;;;;;;;;17.10;93.40;;;;;;5095756;28;19998;-40
2022/11/27 04:29:28;;;;;;;;;;;17.00;93.40;;;;;;5095974;28;19912;-41
2022/11/27 04:31:53;;;;;;;;;;;17.10;93.40;;;;;;5096052;28;19913;-40
2022/11/27 04:34:19;;;;;;;;;;;17.00;93.40;;;;;;5095935;28;19931;-40
2022/11/27 04:36:45;;;;;;;;;;;17.00;93.50;;;;;;5096195;28;19959;-40
2022/11/27 04:39:12;;;;;;;;;;;17.00;93.50;;;;;;5095965;28;19913;-40
2022/11/27 04:41:38;;;;;;;;;;;17.10;93.60;;;;;;5095615;28;19915;-40
2022/11/27 04:44:03;;;;;;;;;;;17.00;93.50;;;;;;5095767;28;19912;-41
2022/11/27 04:46:29;;;;;;;;;;;17.00;93.60;;;;;;5095390;28;19908;-41
2022/11/27 04:48:54;;;;;;;;;;;17.10;93.50;;;;;;5095288;28;19912;-40
2022/11/27 04:51:20;;;;;;;;;;;17.00;93.40;;;;;;5095295;28;19912;-40
2022/11/27 04:53:45;;;;;;;;;;;17.10;93.50;;;;;;5095580;28;19912;-40
2022/11/27 04:56:11;;;;;;;;;;;17.00;93.60;;;;;;5077352;28;19915;-41
2022/11/27 04:58:36;;;;;;;;;;;17.00;93.50;;;;;;5095883;28;20273;-40
2022/11/27 05:01:01;;;;;;;;;;;17.10;93.60;;;;;;5095462;28;19908;-40
2022/11/27 05:03:27;;;;;;;;;;;17.00;93.50;;;;;;5095106;28;19914;-40
2022/11/27 05:05:53;;;;;;;;;;;17.00;93.60;;;;;;5095330;28;19934;-40
2022/11/27 05:08:18;;;;;;;;;;;17.00;93.50;;;;;;5094948;28;19912;-40
2022/11/27 05:10:45;;;;;;;;;;;17.10;93.60;;;;;;5095068;28;19927;-40
2022/11/27 05:13:11;;;;;;;;;;;17.10;93.60;;;;;;5094900;28;19922;-40
2022/11/27 05:15:36;;;;;;;;;;;17.10;93.60;;;;;;5094878;28;19908;-40
2022/11/27 05:18:02;;;;;;;;;;;17.10;93.50;;;;;;5094841;28;19908;-40
2022/11/27 05:20:27;;;;;;;;;;;17.10;93.50;;;;;;5094840;28;20350;-40
2022/11/27 05:22:53;;;;;;;;;;;17.10;93.50;;;;;;5094791;28;20003;-40
2022/11/27 05:25:18;;;;;;;;;;;17.10;93.60;;;;;;5095013;28;19931;-41
2022/11/27 05:27:43;;;;;;;;;;;17.10;93.60;;;;;;5094696;28;19908;-41
2022/11/27 05:30:09;;;;;;;;;;;17.10;93.70;;;;;;5094752;28;19916;-40
2022/11/27 05:32:34;;;;;;;;;;;17.00;93.50;;;;;;5094570;28;19915;-40
2022/11/27 05:35:00;;;;;;;;;;;17.00;93.60;;;;;;5093624;28;19915;-41
2022/11/27 05:37:25;;;;;;;;;;;17.00;93.60;;;;;;5094589;28;19908;-40
2022/11/27 05:39:51;;;;;;;;;;;17.00;93.60;;;;;;5094705;28;20412;-41
2022/11/27 05:42:16;;;;;;;;;;;17.10;93.60;;;;;;5094682;28;19915;-40
2022/11/27 05:44:42;;;;;;;;;;;17.00;93.70;;;;;;5094365;28;19908;-40
2022/11/27 05:47:07;;;;;;;;;;;17.10;93.60;;;;;;5094270;28;19908;-40
2022/11/27 05:49:33;;;;;;;;;;;17.10;93.70;;;;;;5094582;28;19973;-41
2022/11/27 05:51:58;;;;;;;;;;;17.10;93.60;;;;;;5094957;28;19915;-40
2022/11/27 05:54:24;;;;;;;;;;;17.10;93.70;;;;;;5094123;28;19908;-40
2022/11/27 05:56:49;;;;;;;;;;;17.10;93.70;;;;;;5094551;28;19908;-40
2022/11/27 05:59:15;;;;;;;;;;;17.10;93.60;;;;;;5094476;28;19915;-40
2022/11/27 06:01:40;;;;;;;;;;;17.10;93.60;;;;;;5094056;28;20375;-40
2022/11/27 06:04:06;;;;;;;;;;;17.10;93.60;;;;;;5093984;28;19929;-40
2022/11/27 06:06:31;;;;;;;;;;;17.10;93.60;;;;;;5094561;28;19915;-40
2022/11/27 06:08:57;;;;;;;;;;;17.10;93.60;;;;;;5094083;28;19939;-40
2022/11/27 06:11:22;;;;;;;;;;;17.10;93.60;;;;;;5094427;28;20086;-40
2022/11/27 06:13:48;;;;;;;;;;;17.10;93.70;;;;;;5094218;28;20345;-40
2022/11/27 06:16:15;;;;;;;;;;;17.10;93.60;;;;;;5094053;28;19978;-40
2022/11/27 06:18:41;;;;;;;;;;;17.10;93.60;;;;;;5093810;28;19909;-40
2022/11/27 06:21:13;;;;;;;;;;;17.10;93.50;;;;;;5094355;28;19908;-40
2022/11/27 06:23:39;;;;;;;;;;;17.10;93.60;;;;;;5094132;28;20015;-40
2022/11/27 06:26:14;;;;;;;;;;;17.10;93.60;;;;;;5093988;28;19915;-40
2022/11/27 06:28:40;;;;;;;;;;;17.20;93.70;;;;;;5075855;28;19961;-40
2022/11/27 06:31:09;;;;;;;;;;;17.20;93.30;;;;;;5093612;28;20291;-40
2022/11/27 06:33:35;;;;;;;;;;;17.20;93.40;;;;;;5093982;28;19908;-40
2022/11/27 06:36:01;;;;;;;;;;;17.10;93.60;;;;;;5093930;28;20069;-40
2022/11/27 06:38:26;;;;;;;;;;;17.10;93.60;;;;;;5093798;28;19908;-40
2022/11/27 06:40:52;;;;;;;;;;;17.10;93.60;;;;;;5075550;28;19931;-40
2022/11/27 06:43:17;;;;;;;;;;;17.10;93.60;;;;;;5093586;28;19948;-40
2022/11/27 06:45:43;;;;;;;;;;;17.10;93.60;;;;;;5093551;28;19931;-40
2022/11/27 06:48:08;;;;;;;;;;;17.10;93.50;;;;;;5097455;28;20338;-40
2022/11/27 06:50:34;;;;;;;;;;;17.10;93.50;;;;;;5097732;28;19916;-40
2022/11/27 06:52:59;;;;;;;;;;;17.10;93.60;;;;;;5097619;28;19908;-40
2022/11/27 06:55:24;;;;;;;;;;;17.10;93.60;;;;;;5097330;28;19939;-40
2022/11/27 06:57:50;;;;;;;;;;;17.10;93.50;;;;;;5079515;28;19931;-40
2022/11/27 07:00:16;;;;;;;;;;;17.10;93.60;;;;;;5097548;28;19915;-40
2022/11/27 07:02:42;;;;;;;;;;;17.10;93.50;;;;;;5097484;28;19908;-40
2022/11/27 07:05:07;;;;;;;;;;;17.10;93.60;;;;;;5097478;28;20365;-40
2022/11/27 07:07:33;;;;;;;;;;;17.10;93.50;;;;;;5097479;28;19912;-40
2022/11/27 07:09:58;;;;;;;;;;;17.20;93.50;;;;;;5097168;28;19923;-40
2022/11/27 07:12:24;;;;;;;;;;;17.10;93.60;;;;;;5097610;28;20334;-40
2022/11/27 07:14:49;;;;;;;;;;;17.10;93.60;;;;;;5097280;28;19908;-40
2022/11/27 07:17:15;;;;;;;;;;;17.10;93.60;;;;;;5097018;28;20002;-40
2022/11/27 07:19:40;;;;;;;;;;;17.10;93.60;;;;;;5097164;28;19914;-41
2022/11/27 07:22:05;;;;;;;;;;;17.10;93.60;;;;;;5097260;28;19951;-40
2022/11/27 07:24:31;;;;;;;;;;;17.10;93.60;;;;;;5095399;28;19912;-40
2022/11/27 07:26:56;;;;;;;;;;;17.20;93.50;;;;;;5093046;28;19912;-41
2022/11/27 07:29:22;;;;;;;;;;;17.20;93.50;;;;;;5095898;28;19977;-40
2022/11/27 07:31:50;;;;;;;;;;;17.20;93.60;;;;;;5098722;28;19937;-41
2022/11/27 07:34:15;;;;;;;;;;;17.20;93.60;;;;;;5095291;28;20396;-43
2022/11/27 07:36:41;;;;;;;;;;;17.20;93.60;;;;;;5095260;28;20007;-41
2022/11/27 07:39:07;;;;;;;;;;;17.20;93.80;;;;;;5075606;28;19908;-41
2022/11/27 07:41:32;;;;;;;;;;;17.20;93.70;;;;;;5095524;28;19995;-44
2022/11/27 07:43:58;;;;;;;;;;;17.20;93.60;;;;;;5095366;28;19943;-41
2022/11/27 07:46:24;;;;;;;;;;;17.20;93.70;;;;;;5077189;28;19912;-41
2022/11/27 07:48:50;;;;;;;;;;;17.20;93.60;;;;;;5095273;28;19912;-40
2022/11/27 07:51:16;;;;;;;;;;;17.20;93.70;;;;;;5094074;28;20286;-45
2022/11/27 07:53:42;;;;;;;;;;;17.20;93.70;;;;;;5090284;28;19912;-40
2022/11/27 07:56:09;;;;;;;;;;;17.20;93.60;;;;;;5093827;28;19915;-41
2022/11/27 07:58:35;;;;;;;;;;;17.20;93.70;;;;;;5075476;28;19912;-40
2022/11/27 08:01:04;;;;;;;;;;;17.20;93.70;;;;;;5096158;28;19962;-41
2022/11/27 08:03:30;;;;;;;;;;;17.20;93.70;;;;;;5096594;28;19908;-41
2022/11/27 08:05:55;;;;;;;;;;;17.20;93.70;;;;;;5108256;28;19977;-41
2022/11/27 08:08:20;;;;;;;;;;;17.20;93.70;;;;;;5102865;28;19959;-41
2022/11/27 08:10:46;;;;;;;;;;;17.20;93.70;;;;;;5094919;28;20011;-42
2022/11/27 08:13:11;;;;;;;;;;;17.20;93.70;;;;;;5096016;28;20371;-41
2022/11/27 08:15:37;;;;;;;;;;;17.20;93.60;;;;;;5092118;28;19908;-42
2022/11/27 08:18:02;;;;;;;;;;;17.30;93.60;;;;;;5092253;28;20298;-41
2022/11/27 08:20:28;;;;;;;;;;;17.20;93.60;;;;;;5095116;28;19919;-41
2022/11/27 08:22:53;;;;;;;;;;;17.20;93.70;;;;;;5095006;28;19908;-41
2022/11/27 08:25:19;;;;;;;;;;;17.20;93.60;;;;;;5095591;28;19918;-41
2022/11/27 08:27:47;;;;;;;;;;;17.20;93.60;;;;;;5094269;28;19909;-42
2022/11/27 08:30:13;;;;;;;;;;;17.30;93.70;;;;;;5077051;28;19912;-41
2022/11/27 08:32:38;;;;;;;;;;;17.20;93.70;;;;;;5095001;28;19924;-41
2022/11/27 08:35:04;;;;;;;;;;;17.20;93.70;;;;;;5091853;28;20059;-42
2022/11/27 08:37:30;;;;;;;;;;;17.30;93.70;;;;;;5097378;28;20366;-41
2022/11/27 08:39:55;;;;;;;;;;;17.30;93.70;;;;;;5094151;28;19912;-42
2022/11/27 08:42:21;;;;;;;;;;;17.30;93.70;;;;;;5072465;28;19915;-41
2022/11/27 08:44:46;;;;;;;;;;;17.30;93.80;;;;;;5097278;28;20004;-41
2022/11/27 08:47:14;;;;;;;;;;;17.30;93.80;;;;;;5094567;28;19912;-41
2022/11/27 08:49:39;;;;;;;;;;;17.20;93.90;;;;;;5091596;28;20350;-47
2022/11/27 08:52:05;;;;;;;;;;;17.30;93.70;;;;;;5076158;28;20004;-42
2022/11/27 08:54:30;;;;;;;;;;;17.30;93.70;;;;;;5076230;28;19909;-41
2022/11/27 08:56:56;;;;;;;;;;;17.30;93.70;;;;;;5079773;28;19909;-41
2022/11/27 08:59:21;;;;;;;;;;;17.30;93.80;;;;;;5077263;28;19908;-42
2022/11/27 09:01:47;;;;;;;;;;;17.30;93.70;;;;;;5091210;28;19913;-41
2022/11/27 09:04:12;;;;;;;;;;;17.30;93.80;;;;;;5093394;28;19912;-41
2022/11/27 09:06:39;;;;;;;;;;;17.30;93.80;;;;;;5075712;28;19919;-48
2022/11/27 09:09:05;;;;;;;;;;;17.30;93.80;;;;;;5093628;28;19912;-42
2022/11/27 09:11:31;;;;;;;;;;;17.30;93.80;;;;;;5093749;28;19927;-43
2022/11/27 09:14:01;;;;;;;;;;;17.30;93.80;;;;;;5089577;28;19908;-41
2022/11/27 09:16:28;;;;;;;;;;;17.30;93.80;;;;;;5093612;28;19991;-41
2022/11/27 09:18:54;;;;;;;;;;;17.30;93.80;;;;;;5095544;28;20057;-41
2022/11/27 09:21:21;;;;;;;;;;;17.30;93.80;;;;;;5094482;28;20006;-42
2022/11/27 09:23:46;;;;;;;;;;;17.30;93.80;;;;;;5090422;28;19920;-41
2022/11/27 09:26:14;;;;;;;;;;;17.30;93.80;;;;;;5090386;28;19912;-41
2022/11/27 09:28:40;;;;;;;;;;;17.30;93.80;;;;;;5099430;28;20286;-41
2022/11/27 09:31:06;;;;;;;;;;;17.30;93.80;;;;;;5104750;28;19912;-43
2022/11/27 09:33:33;;;;;;;;;;;17.30;93.80;;;;;;5105051;28;20350;-41
2022/11/27 09:36:03;;;;;;;;;;;17.30;93.70;;;;;;5104642;28;19919;-45
2022/11/27 09:38:29;;;;;;;;;;;17.40;93.70;;;;;;5089708;28;19912;-41
2022/11/27 09:40:57;;;;;;;;;;;17.40;93.80;;;;;;5065179;28;19920;-47
2022/11/27 09:43:30;;;;;;;;;;;17.50;93.70;;;;;;5099886;28;20323;-41
2022/11/27 09:45:57;;;;;;;;;;;17.40;93.80;;;;;;5071692;28;19908;-41
2022/11/27 09:48:44;;;;;;;;;;;17.40;93.90;;;;;;5080936;28;20371;-41
2022/11/27 09:51:27;;;;;;;;;;;17.30;93.90;;;;;;5076619;28;19920;-46
2022/11/27 09:54:05;;;;;;;;;;;17.30;93.90;;;;;;5102111;28;20416;-41
2022/11/27 09:56:33;;;;;;;;;;;17.30;93.90;;;;;;5097795;28;19997;-41
2022/11/27 09:58:58;;;;;;;;;;;17.30;93.90;;;;;;5101821;27;19916;-41
2022/11/27 10:01:28;;;;;;;;;;;17.30;93.90;;;;;;5078004;28;19961;-45
2022/11/27 10:03:54;;;;;;;;;;;17.30;93.80;;;;;;5092259;28;19958;-41
2022/11/27 10:06:31;;;;;;;;;;;17.40;93.80;;;;;;5093175;28;19912;-41
2022/11/27 10:09:06;;;;;;;;;;;17.40;93.80;;;;;;5085947;28;19964;-42
2022/11/27 10:11:34;;;;;;;;;;;17.30;93.80;;;;;;5090100;28;19916;-41
2022/11/27 10:14:05;;;;;;;;;;;17.30;93.80;;;;;;5092082;28;20337;-41
2022/11/27 10:16:38;;;;;;;;;;;17.30;93.80;;;;;;5088272;28;22283;-41
2022/11/27 10:19:10;;;;;;;;;;;17.30;93.80;;;;;;5097781;28;20367;-40
2022/11/27 10:21:47;;;;;;;;;;;17.30;93.80;;;;;;5078729;28;19939;-40
2022/11/27 10:24:20;;;;;;;;;;;17.30;93.70;;;;;;5098165;28;19931;-41
2022/11/27 10:26:47;;;;;;;;;;;17.40;93.60;;;;;;5106043;28;20002;-41
2022/11/27 10:29:12;;;;;;;;;;;17.50;93.60;;;;;;5109475;28;19915;-41
2022/11/27 10:31:57;;;;;;;;;;;17.40;93.60;;;;;;5093271;28;20453;-41
2022/11/27 10:34:42;;;;;;;;;;;17.40;93.60;;;;;;5073423;28;19912;-40
2022/11/27 10:37:16;;;;;;;;;;;17.50;93.50;;;;;;5073490;28;19909;-40
2022/11/27 10:39:46;;;;;;;;;;;17.40;93.50;;;;;;5073296;28;19979;-40
2022/11/27 10:42:21;;;;;;;;;;;17.40;93.50;;;;;;5087021;28;19916;-41
2022/11/27 10:44:49;;;;;;;;;;;17.40;93.50;;;;;;5093949;28;20011;-41
2022/11/27 10:47:15;;;;;;;;;;;17.40;93.50;;;;;;5092894;28;19934;-41
2022/11/27 10:49:41;;;;;;;;;;;17.40;93.50;;;;;;5093320;28;19912;-40
2022/11/27 10:52:11;;;;;;;;;;;17.40;93.40;;;;;;5093389;28;19935;-42
2022/11/27 10:54:37;;;;;;;;;;;17.40;93.50;;;;;;5093399;28;19911;-44
2022/11/27 10:57:21;;;;;;;;;;;17.40;93.40;;;;;;5093818;28;19923;-43
2022/11/27 10:59:55;;;;;;;;;;;17.40;93.60;;;;;;5092710;28;19908;-41
2022/11/27 11:02:26;;;;;;;;;;;17.40;93.50;;;;;;5093520;28;19908;-40
2022/11/27 11:04:52;;;;;;;;;;;17.40;93.50;;;;;;5093440;28;19908;-41
2022/11/27 11:07:26;;;;;;;;;;;17.40;93.50;;;;;;5093176;28;20320;-41
2022/11/27 11:09:53;;;;;;;;;;;17.40;93.50;;;;;;5093508;28;19960;-41
2022/11/27 11:12:20;;;;;;;;;;;17.40;93.40;;;;;;5093682;28;19928;-41
2022/11/27 11:14:55;;;;;;;;;;;17.40;93.40;;;;;;5092196;28;20377;-41
2022/11/27 11:17:24;;;;;;;;;;;17.40;93.40;;;;;;5093641;28;19986;-41
2022/11/27 11:19:49;;;;;;;;;;;17.40;93.50;;;;;;5093156;28;19908;-41
2022/11/27 11:22:15;;;;;;;;;;;17.40;93.40;;;;;;5075326;28;19908;-41
2022/11/27 11:24:51;;;;;;;;;;;17.40;93.50;;;;;;5075281;28;19930;-41
2022/11/27 11:27:24;;;;;;;;;;;17.40;93.50;;;;;;5093752;28;20406;-41
2022/11/27 11:30:00;;;;;;;;;;;17.40;93.40;;;;;;5093495;28;19985;-41
2022/11/27 11:32:27;;;;;;;;;;;17.40;93.50;;;;;;5092297;28;20000;-41
2022/11/27 11:34:58;;;;;;;;;;;17.40;93.50;;;;;;5095877;28;20325;-41
2022/11/27 11:37:24;;;;;;;;;;;17.40;93.40;;;;;;5096836;28;19943;-41
2022/11/27 11:39:57;;;;;;;;;;;17.40;93.50;;;;;;5096726;28;20189;-41
2022/11/27 11:42:24;;;;;;;;;;;17.40;93.40;;;;;;5097015;28;19965;-41
2022/11/27 11:44:52;;;;;;;;;;;17.40;93.50;;;;;;5096397;28;20294;-41
2022/11/27 11:47:18;;;;;;;;;;;17.30;93.50;;;;;;5096536;28;19961;-41
2022/11/27 11:49:44;;;;;;;;;;;17.30;93.40;;;;;;5095544;28;20321;-40
2022/11/27 11:52:20;;;;;;;;;;;17.30;93.40;;;;;;5096333;28;19912;-41
2022/11/27 11:55:05;;;;;;;;;;;17.30;93.40;;;;;;5096223;28;19908;-41
2022/11/27 11:57:42;;;;;;;;;;;17.30;93.50;;;;;;5096077;28;19915;-41
2022/11/27 12:00:10;;;;;;;;;;;17.30;93.40;;;;;;5096414;28;19931;-41
2022/11/27 12:02:54;;;;;;;;;;;17.30;93.40;;;;;;5096190;28;20274;-41
2022/11/27 12:05:20;;;;;;;;;;;17.30;93.40;;;;;;5096281;28;19956;-40
2022/11/27 12:07:45;;;;;;;;;;;17.40;93.40;;;;;;5095539;28;19908;-41
2022/11/27 12:10:26;;;;;;;;;;;17.40;93.40;;;;;;5095842;28;19916;-41
2022/11/27 12:12:55;;;;;;;;;;;17.40;93.20;;;;;;5096320;28;19912;-40
2022/11/27 12:15:20;;;;;;;;;;;17.50;93.20;;;;;;5096126;28;19934;-40
2022/11/27 12:18:07;;;;;;;;;;;17.50;93.10;;;;;;5094944;28;19911;-44
2022/11/27 12:20:52;;;;;;;;;;;17.60;93.10;;;;;;5077654;28;19988;-41
2022/11/27 12:23:36;;;;;;;;;;;17.50;93.10;;;;;;5083453;28;19920;-41
2022/11/27 12:26:04;;;;;;;;;;;17.50;93.10;;;;;;5079486;28;19908;-42
2022/11/27 12:28:49;;;;;;;;;;;17.40;92.90;;;;;;5094825;28;19908;-42
2022/11/27 12:31:20;;;;;;;;;;;17.40;92.80;;;;;;5082113;28;19916;-41
2022/11/27 12:33:46;;;;;;;;;;;17.40;92.90;;;;;;5079074;28;20048;-41
2022/11/27 12:36:14;;;;;;;;;;;17.40;93.00;;;;;;5106716;28;20014;-39
2022/11/27 12:38:59;;;;;;;;;;;17.40;93.10;;;;;;5103818;28;19965;-49
2022/11/27 12:41:51;;;;;;;;;;;17.40;93.30;;;;;;5100451;28;19912;-40
2022/11/27 12:44:26;;;;;;;;;;;17.40;93.50;;;;;;5065323;28;19912;-40
2022/11/27 12:46:58;;;;;;;;;;;17.30;93.40;;;;;;5113284;28;19908;-40
2022/11/27 12:49:26;;;;;;;;;;;17.30;93.50;;;;;;5110705;28;19929;-41
2022/11/27 12:52:10;;;;;;;;;;;17.30;93.50;;;;;;5107373;28;20532;-41
2022/11/27 12:54:43;;;;;;;;;;;17.40;93.50;;;;;;5111872;28;19921;-41
2022/11/27 12:57:15;;;;;;;;;;;17.50;93.50;;;;;;5100513;28;19922;-46
2022/11/27 12:59:55;;;;;;;;;;;17.50;93.50;;;;;;5102714;28;19918;-41
2022/11/27 13:02:25;;;;;;;;;;;17.50;93.50;;;;;;5098468;28;19914;-41
2022/11/27 13:05:00;;;;;;;;;;;17.40;93.60;;;;;;5112825;28;20270;-41
2022/11/27 13:07:37;;;;;;;;;;;17.40;93.70;;;;;;5106800;28;19914;-41
2022/11/27 13:10:11;;;;;;;;;;;17.30;93.60;;;;;;5115092;28;19916;-41
2022/11/27 13:12:45;;;;;;;;;;;17.30;93.70;;;;;;5110157;28;20410;-41
2022/11/27 13:15:20;;;;;;;;;;;17.30;93.60;;;;;;5062807;28;19913;-41
2022/11/27 13:17:48;;;;;;;;;;;17.30;93.60;;;;;;5094407;28;19947;-40
2022/11/27 13:20:25;;;;;;;;;;;17.30;93.60;;;;;;5095679;28;20371;-40
2022/11/27 13:22:51;;;;;;;;;;;17.30;93.70;;;;;;5107835;28;19921;-41
2022/11/27 13:25:17;;;;;;;;;;;17.20;93.70;;;;;;5093262;28;19912;-40
2022/11/27 13:27:44;;;;;;;;;;;17.30;93.70;;;;;;5089661;28;19912;-40
2022/11/27 13:30:17;;;;;;;;;;;17.20;93.50;;;;;;5094623;28;20019;-43
2022/11/27 13:32:47;;;;;;;;;;;17.20;93.60;;;;;;5091711;28;20370;-40
2022/11/27 13:35:18;;;;;;;;;;;17.20;93.50;;;;;;5094112;28;19915;-40
2022/11/27 13:37:46;;;;;;;;;;;17.20;93.50;;;;;;5094430;28;19916;-41
2022/11/27 13:40:20;;;;;;;;;;;17.20;93.50;;;;;;5075793;28;19908;-41
2022/11/27 13:42:54;;;;;;;;;;;17.20;93.50;;;;;;5074953;28;19912;-40
2022/11/27 13:45:27;;;;;;;;;;;17.20;93.50;;;;;;5109146;28;20319;-41
2022/11/27 13:47:54;;;;;;;;;;;17.20;93.70;;;;;;5083441;28;19912;-40
2022/11/27 13:50:21;;;;;;;;;;;17.20;93.50;;;;;;5093606;28;19937;-40
2022/11/27 13:53:03;;;;;;;;;;;17.10;93.60;;;;;;5093801;28;19912;-40
2022/11/27 13:55:32;;;;;;;;;;;17.20;93.70;;;;;;5075453;28;20007;-47
2022/11/27 13:57:58;;;;;;;;;;;17.20;93.70;;;;;;5072019;28;20378;-40
2022/11/27 14:00:37;;;;;;;;;;;17.20;93.80;;;;;;5082866;28;19912;-41
2022/11/27 14:03:03;;;;;;;;;;;17.20;93.80;;;;;;5099247;28;19912;-41
2022/11/27 14:05:40;;;;;;;;;;;17.20;93.70;;;;;;5103449;28;19911;-40
2022/11/27 14:08:26;;;;;;;;;;;17.20;93.70;;;;;;5108324;28;19916;-41
2022/11/27 14:11:12;;;;;;;;;;;17.20;93.70;;;;;;5081156;28;19927;-41
2022/11/27 14:13:39;;;;;;;;;;;17.30;93.70;;;;;;5090384;28;19962;-42
2022/11/27 14:16:26;;;;;;;;;;;17.30;93.70;;;;;;5092476;28;19995;-41
2022/11/27 14:18:53;;;;;;;;;;;17.30;93.70;;;;;;5075154;28;19908;-41
2022/11/27 14:21:39;;;;;;;;;;;17.20;93.80;;;;;;5104537;28;19907;-41
2022/11/27 14:24:22;;;;;;;;;;;17.20;93.70;;;;;;5092202;28;20402;-45
2022/11/27 14:26:47;;;;;;;;;;;17.30;94.20;;;;;;5091364;28;20310;-42